Aérodrome :
LOGIN :

S'inscrire | Disclaimer

   EN    FR    IT 

 










Légende :    VFR   VFR Marginal   IFR   IFR Intensif   IFR Très Intensif
Visi : 
Plafond : 
>= 8 km
>= 3000ft
5 à 8 km
1000 à 3000 ft
1500m à 5 km
500 à 1000 ft
800 à 1500m
200 à 500 ft
< 800m
< 200 ft
Symboles :   Orages  Brouillard  Fortes neiges  Fortes précipitations  Vent > 20 kt
SIGMETs :   Divers  Orages  Givrage  Turbulence  Onde Orograph.  Cendres Volcan.






- Altitude de l'aérodrome : 1455 ft


ETIH - Hohenfels Army Air Field

DERNIER METAR :
  • 221757Z AUTO 00000KT 3200 BR CLR 13/13 A3022 RMK AO2 SLP240 $

METARs EXPIRÉS :
  • 221750Z AUTO 00000KT 3000 BR CLR 13/13 A3022 RMK AO2 SLP240 $
  • 221742Z AUTO 00000KT 3200 BR CLR 12/12 A3022 RMK AO2 SLP240 $
  • 221713Z AUTO 00000KT 3000 BR CLR 13/13 A3022 RMK AO2 SLP238 $
  • 221656Z AUTO 00000KT 3600 BR CLR 14/14 A3021 RMK AO2 SLP232 T01380138 $
  • 221631Z AUTO 00000KT 3200 BR SCT019 15/15 A3021 RMK AO2 VIS 2000V3200 SLP232 $
  • 221627Z AUTO 00000KT 2600 BR SCT019 15/15 A3021 RMK AO2 VIS 1800V2600 SLP232 $
  • 221617Z AUTO 00000KT 2000 BR BKN019 15/15 A3021 RMK AO2 SLP232 $
  • 221556Z AUTO 00000KT 2200 BR FEW021 16/16 A3021 RMK AO2 SLP232 T01600160 $
  • 221541Z AUTO 00000KT 3000 BR CLR 16/16 A3021 RMK AO2 SLP230 $

Prévision TAF périmée.



MET'MAP, la Météo Aéronautique d'un coup d'oeil ! - Copyright ORBIFLY Décembre 2007 - Disclaimer

ORBIFLY MET'MAP TEAM :

Programmation & Développement : Alexandra Zaïnal
Conception & Développement : Baudouin d'Aumeries
Co-Programmation & Développement : Marc-Olivier Méhu
Soutien technique & logistique : Manuel Goepfert

Contact : metmap@orbifly.com




SOURCES & CREDITS :

   NOAA